Time;durP1;ratioP1;P1;durP2;ratioP2;P2;SDS_P1;SDS_P2;PMS_P1;PMS_P2;Temp;Humidity;BMP_temperature;BMP_pressure;BME280_temperature;BME280_humidity;BME280_pressure;Samples;Min_cycle;Max_cycle;Signal;HPM_P1;HPM_P2
2021/06/19 00:02:01;;;;;;;1.02;0.88;;;21.10;80.00;;;;;;5073691;28;20078;-75
2021/06/19 00:04:31;;;;;;;0.88;0.88;;;21.10;80.00;;;;;;5073824;28;20111;-75
2021/06/19 00:07:02;;;;;;;0.63;0.63;;;21.10;80.00;;;;;;5072492;28;20074;-74
2021/06/19 00:09:28;;;;;;;1.05;0.93;;;21.10;80.10;;;;;;5073503;28;20035;-74
2021/06/19 00:11:53;;;;;;;1.08;0.85;;;21.10;80.10;;;;;;5073536;28;20017;-75
2021/06/19 00:14:20;;;;;;;1.15;1.10;;;21.10;80.20;;;;;;5072184;28;20020;-75
2021/06/19 00:16:46;;;;;;;1.20;1.10;;;21.10;80.20;;;;;;5073688;28;20087;-74
2021/06/19 00:19:12;;;;;;;1.42;1.00;;;21.10;80.20;;;;;;5073461;28;20017;-74
2021/06/19 00:21:41;;;;;;;1.50;1.00;;;21.10;80.20;;;;;;5073459;28;20028;-74
2021/06/19 00:24:07;;;;;;;1.17;1.00;;;21.10;80.20;;;;;;5073584;28;20530;-74
2021/06/19 00:26:33;;;;;;;0.85;0.85;;;21.10;80.20;;;;;;5073592;28;20377;-74
2021/06/19 00:28:58;;;;;;;1.23;1.13;;;21.00;80.20;;;;;;5072326;28;20495;-74
2021/06/19 00:31:24;;;;;;;0.75;0.75;;;21.00;80.30;;;;;;5073373;28;20063;-75
2021/06/19 00:33:49;;;;;;;0.90;0.90;;;21.00;80.40;;;;;;5072003;28;20033;-75
2021/06/19 00:36:15;;;;;;;1.52;1.10;;;21.00;80.30;;;;;;5091560;28;20555;-74
2021/06/19 00:38:40;;;;;;;1.05;0.98;;;21.00;80.30;;;;;;5093506;28;20578;-75
2021/06/19 00:41:06;;;;;;;1.40;1.30;;;21.00;80.40;;;;;;5093408;28;20016;-74
2021/06/19 00:43:32;;;;;;;1.17;1.08;;;21.00;80.40;;;;;;5092934;28;20384;-75
2021/06/19 00:45:57;;;;;;;1.10;1.00;;;21.00;80.40;;;;;;5093260;28;20042;-74
2021/06/19 00:48:25;;;;;;;0.80;0.80;;;21.00;80.50;;;;;;5075184;28;20019;-75
2021/06/19 00:50:51;;;;;;;0.77;0.77;;;21.00;80.40;;;;;;5093332;28;20032;-74
2021/06/19 00:53:16;;;;;;;0.80;0.80;;;20.90;80.40;;;;;;5093169;28;20119;-75
2021/06/19 00:55:42;;;;;;;1.27;0.85;;;20.90;80.40;;;;;;5092567;28;20495;-74
2021/06/19 00:58:07;;;;;;;0.80;0.70;;;21.00;80.40;;;;;;5092723;28;20077;-74
2021/06/19 01:00:33;;;;;;;1.23;0.88;;;21.00;80.50;;;;;;5075096;28;20487;-74
2021/06/19 01:02:59;;;;;;;0.70;0.70;;;21.00;80.50;;;;;;5077969;28;20035;-75
2021/06/19 01:05:26;;;;;;;0.95;0.93;;;21.00;80.50;;;;;;5097327;28;20019;-75
2021/06/19 01:07:54;;;;;;;1.42;1.20;;;21.00;80.50;;;;;;5095939;28;20446;-75
2021/06/19 01:10:19;;;;;;;1.30;0.80;;;21.00;80.50;;;;;;5096832;28;20099;-75
2021/06/19 01:12:46;;;;;;;0.60;0.60;;;21.00;80.50;;;;;;5097223;28;20455;-75
2021/06/19 01:15:13;;;;;;;0.98;0.90;;;21.00;80.50;;;;;;5097139;28;20020;-75
2021/06/19 01:17:39;;;;;;;0.70;0.70;;;21.00;80.40;;;;;;5097029;28;20020;-75
2021/06/19 01:20:06;;;;;;;0.70;0.70;;;21.00;80.30;;;;;;5096945;28;20513;-75
2021/06/19 01:22:33;;;;;;;0.60;0.60;;;21.00;80.30;;;;;;5097112;28;20028;-75
2021/06/19 01:25:08;;;;;;;1.15;0.60;;;21.00;80.30;;;;;;5096662;28;20016;-75
2021/06/19 01:27:34;;;;;;;0.50;0.50;;;21.00;80.20;;;;;;5096901;28;20032;-75
2021/06/19 01:30:00;;;;;;;0.57;0.57;;;21.10;80.30;;;;;;5096960;28;20059;-75
2021/06/19 01:32:28;;;;;;;0.60;0.60;;;21.10;80.20;;;;;;5096645;28;20082;-75
2021/06/19 01:34:54;;;;;;;0.52;0.52;;;21.10;80.20;;;;;;5078389;28;20438;-75
2021/06/19 01:37:19;;;;;;;0.55;0.55;;;21.10;80.20;;;;;;5078592;28;20041;-75
2021/06/19 01:39:45;;;;;;;0.70;0.60;;;21.00;80.10;;;;;;5078173;28;20024;-75
2021/06/19 01:42:10;;;;;;;0.80;0.80;;;21.10;80.20;;;;;;5096886;28;20449;-75
2021/06/19 01:44:36;;;;;;;0.73;0.73;;;21.00;80.20;;;;;;5078372;28;20073;-75
2021/06/19 01:47:02;;;;;;;0.80;0.80;;;21.10;80.20;;;;;;5096511;28;20476;-75
2021/06/19 01:49:32;;;;;;;0.50;0.50;;;21.10;80.20;;;;;;5096492;28;20153;-75
2021/06/19 01:51:57;;;;;;;0.55;0.55;;;21.10;80.20;;;;;;5078232;28;20016;-75
2021/06/19 01:54:23;;;;;;;0.50;0.50;;;21.10;80.30;;;;;;5077861;28;20541;-75
2021/06/19 01:56:48;;;;;;;0.60;0.60;;;21.00;80.30;;;;;;5078083;28;20020;-75
2021/06/19 01:59:14;;;;;;;0.50;0.50;;;21.00;80.30;;;;;;5078294;28;20527;-75
2021/06/19 02:01:39;;;;;;;0.60;0.60;;;21.00;80.40;;;;;;5096254;28;20031;-75
2021/06/19 02:04:05;;;;;;;0.70;0.70;;;21.10;80.40;;;;;;5096231;28;20016;-75
2021/06/19 02:06:30;;;;;;;0.60;0.60;;;21.10;80.30;;;;;;5096135;28;20098;-75
2021/06/19 02:09:07;;;;;;;0.50;0.50;;;21.10;80.20;;;;;;5095773;28;20511;-75
2021/06/19 02:11:34;;;;;;;0.52;0.52;;;21.20;80.20;;;;;;5096202;28;20082;-75
2021/06/19 02:14:02;;;;;;;0.63;0.63;;;21.10;80.20;;;;;;5096020;28;20131;-75
2021/06/19 02:16:28;;;;;;;0.38;0.38;;;21.10;80.20;;;;;;5096004;28;20099;-74
2021/06/19 02:18:53;;;;;;;0.60;0.60;;;21.10;80.20;;;;;;5077876;28;20055;-75
2021/06/19 02:21:19;;;;;;;0.73;0.70;;;21.10;80.20;;;;;;5095932;28;20024;-75
2021/06/19 02:23:44;;;;;;;0.77;0.77;;;21.10;80.20;;;;;;5077287;28;20028;-75
2021/06/19 02:26:10;;;;;;;1.00;1.00;;;21.10;80.20;;;;;;5077773;28;20020;-75
2021/06/19 02:28:35;;;;;;;2.20;1.20;;;21.10;80.30;;;;;;5095677;28;20109;-75
2021/06/19 02:31:01;;;;;;;0.82;0.73;;;21.10;80.30;;;;;;5095714;28;20430;-75
2021/06/19 02:33:26;;;;;;;1.27;0.70;;;21.10;80.90;;;;;;5077647;28;20032;-75
2021/06/19 02:35:52;;;;;;;0.70;0.70;;;21.10;80.30;;;;;;5077489;28;20047;-75
2021/06/19 02:38:20;;;;;;;0.60;0.60;;;21.10;80.30;;;;;;5095215;28;20071;-75
2021/06/19 02:40:47;;;;;;;1.00;1.00;;;21.10;80.30;;;;;;5077420;28;20486;-75
2021/06/19 02:43:16;;;;;;;0.80;0.80;;;21.10;80.30;;;;;;5095781;28;20103;-75
2021/06/19 02:45:41;;;;;;;0.80;0.80;;;21.00;80.30;;;;;;5077227;28;20032;-75
2021/06/19 02:48:07;;;;;;;0.85;0.85;;;21.00;80.40;;;;;;5077397;28;20046;-75
2021/06/19 02:50:36;;;;;;;0.70;0.70;;;21.00;80.40;;;;;;5095432;28;20078;-75
2021/06/19 02:53:02;;;;;;;0.77;0.60;;;21.00;80.50;;;;;;5095062;28;20035;-75
2021/06/19 02:55:30;;;;;;;0.82;0.82;;;20.90;80.50;;;;;;5077258;28;20464;-75
2021/06/19 02:57:56;;;;;;;0.73;0.73;;;21.00;80.40;;;;;;5092671;28;20032;-75
2021/06/19 03:00:23;;;;;;;1.15;0.93;;;21.00;80.30;;;;;;5095306;28;20090;-75
2021/06/19 03:02:49;;;;;;;0.60;0.60;;;21.10;80.30;;;;;;5093891;28;20491;-74
2021/06/19 03:05:20;;;;;;;0.60;0.60;;;21.10;80.20;;;;;;5095293;28;20106;-75
2021/06/19 03:07:46;;;;;;;1.55;0.60;;;21.10;80.10;;;;;;5094588;28;20434;-75
2021/06/19 03:10:18;;;;;;;0.70;0.70;;;21.20;80.00;;;;;;5095328;28;20039;-75
2021/06/19 03:12:44;;;;;;;0.80;0.80;;;21.30;80.00;;;;;;5094874;28;20036;-75
2021/06/19 03:15:11;;;;;;;0.70;0.70;;;21.30;80.60;;;;;;5076921;28;20020;-75
2021/06/19 03:17:37;;;;;;;0.80;0.80;;;21.30;79.90;;;;;;5094764;28;20035;-75
2021/06/19 03:20:08;;;;;;;0.70;0.70;;;21.30;79.90;;;;;;5094733;28;20024;-75
2021/06/19 03:23:00;;;;;;;1.10;1.08;;;21.30;79.80;;;;;;5094204;28;20127;-75
2021/06/19 03:25:28;;;;;;;0.70;0.70;;;21.30;79.90;;;;;;5075440;28;20472;-75
2021/06/19 03:27:55;;;;;;;0.80;0.80;;;21.30;79.90;;;;;;5094471;28;20024;-75
2021/06/19 03:30:21;;;;;;;0.70;0.70;;;21.30;79.90;;;;;;5094725;28;20031;-75
2021/06/19 03:32:48;;;;;;;1.20;1.10;;;21.40;79.90;;;;;;5076261;28;20024;-75
2021/06/19 03:35:14;;;;;;;0.80;0.80;;;21.40;79.90;;;;;;5076271;28;20484;-75
2021/06/19 03:37:40;;;;;;;0.85;0.85;;;21.40;79.90;;;;;;5094023;28;20025;-75
2021/06/19 03:40:08;;;;;;;0.80;0.80;;;21.40;79.90;;;;;;5076173;28;20069;-75
2021/06/19 03:42:33;;;;;;;1.10;1.00;;;21.40;80.00;;;;;;5093108;28;20050;-75
2021/06/19 03:44:59;;;;;;;1.00;1.00;;;21.40;80.00;;;;;;5076237;28;20453;-75
2021/06/19 03:47:24;;;;;;;0.80;0.80;;;21.40;79.90;;;;;;5094278;28;20524;-75
2021/06/19 03:49:50;;;;;;;0.68;0.68;;;21.50;80.00;;;;;;5093793;28;20020;-75
2021/06/19 03:52:15;;;;;;;0.90;0.90;;;21.50;80.00;;;;;;5093990;28;20042;-75
2021/06/19 03:54:41;;;;;;;1.10;0.85;;;21.50;80.00;;;;;;5075866;28;20058;-75
2021/06/19 03:57:07;;;;;;;1.27;1.17;;;21.50;79.90;;;;;;5094090;28;20107;-75
2021/06/19 03:59:33;;;;;;;1.73;0.95;;;21.50;79.90;;;;;;5094187;28;20474;-75
2021/06/19 04:02:00;;;;;;;1.40;1.17;;;21.50;80.00;;;;;;5093992;28;20052;-75
2021/06/19 04:04:25;;;;;;;1.23;1.10;;;21.50;79.90;;;;;;5093544;28;20028;-75
2021/06/19 04:06:51;;;;;;;1.20;1.10;;;21.50;80.00;;;;;;5093734;28;20024;-75
2021/06/19 04:09:16;;;;;;;1.45;1.35;;;21.50;79.90;;;;;;5093928;28;20456;-75
2021/06/19 04:11:42;;;;;;;1.10;1.10;;;21.60;79.90;;;;;;5093909;28;20028;-75
2021/06/19 04:14:08;;;;;;;1.20;1.10;;;21.50;79.90;;;;;;5075617;28;20028;-75
2021/06/19 04:16:34;;;;;;;1.45;1.35;;;21.50;80.00;;;;;;5093733;28;20027;-75
2021/06/19 04:18:59;;;;;;;1.80;1.42;;;21.60;80.00;;;;;;5075056;28;20031;-75
2021/06/19 04:21:25;;;;;;;1.00;1.00;;;21.50;79.90;;;;;;5093737;28;20020;-75
2021/06/19 04:23:51;;;;;;;1.50;1.40;;;21.60;80.00;;;;;;5093719;28;20024;-75
2021/06/19 04:26:16;;;;;;;1.70;1.60;;;21.50;79.90;;;;;;5093635;28;20028;-76
2021/06/19 04:28:42;;;;;;;1.70;1.30;;;21.50;80.00;;;;;;5093428;28;20031;-75
2021/06/19 04:31:07;;;;;;;1.42;1.30;;;21.50;80.00;;;;;;5093492;28;20055;-75
2021/06/19 04:33:33;;;;;;;1.40;1.30;;;21.50;79.90;;;;;;5093062;28;20039;-75
2021/06/19 04:35:58;;;;;;;1.40;1.30;;;21.60;79.90;;;;;;5074601;28;20071;-76
2021/06/19 04:38:24;;;;;;;1.33;1.15;;;21.60;80.00;;;;;;5074962;28;20020;-75
2021/06/19 04:41:03;;;;;;;1.13;1.08;;;21.50;79.90;;;;;;5093680;28;20020;-75
2021/06/19 04:46:14;;;;;;;1.45;1.23;;;21.50;80.00;;;;;;5061960;28;20028;-75
2021/06/19 04:48:40;;;;;;;1.15;1.10;;;21.60;79.90;;;;;;5092715;28;20392;-76
2021/06/19 04:51:06;;;;;;;1.52;1.42;;;21.60;79.90;;;;;;5075226;28;20353;-76
2021/06/19 04:53:31;;;;;;;1.50;1.40;;;21.60;79.80;;;;;;5075187;28;20499;-75
2021/06/19 04:56:00;;;;;;;1.63;1.42;;;21.70;79.70;;;;;;5093358;28;20020;-76
2021/06/19 04:58:26;;;;;;;1.52;1.27;;;21.70;79.80;;;;;;5092682;28;20028;-75
2021/06/19 05:00:51;;;;;;;2.75;1.38;;;21.60;79.90;;;;;;5093317;28;20031;-75
2021/06/19 05:03:18;;;;;;;1.02;1.00;;;21.60;79.90;;;;;;5092789;28;20028;-75
2021/06/19 05:05:44;;;;;;;0.90;0.90;;;21.70;79.90;;;;;;5075026;28;20016;-76
2021/06/19 05:08:10;;;;;;;1.27;1.17;;;21.70;79.90;;;;;;5093074;28;20119;-76
2021/06/19 05:10:35;;;;;;;1.20;1.10;;;21.70;79.80;;;;;;5075115;28;20023;-76
2021/06/19 05:13:00;;;;;;;1.00;1.00;;;21.70;79.80;;;;;;5074989;28;20043;-76
2021/06/19 05:15:26;;;;;;;0.80;0.80;;;21.80;79.70;;;;;;5093032;28;20048;-76
2021/06/19 05:17:54;;;;;;;1.23;0.90;;;21.80;79.70;;;;;;5092372;28;20110;-76
2021/06/19 05:20:20;;;;;;;0.95;0.95;;;21.70;79.70;;;;;;5093044;28;20495;-76
2021/06/19 05:22:47;;;;;;;0.70;0.70;;;21.70;79.80;;;;;;5074961;28;20111;-75
2021/06/19 05:25:13;;;;;;;1.30;1.20;;;21.70;79.80;;;;;;5092403;28;20411;-75
2021/06/19 05:27:40;;;;;;;1.05;1.00;;;21.80;79.90;;;;;;5093126;28;20031;-73
2021/06/19 05:30:06;;;;;;;1.30;1.20;;;21.70;79.90;;;;;;5092863;28;20025;-73
2021/06/19 05:32:31;;;;;;;1.63;1.17;;;21.70;79.90;;;;;;5092406;28;20446;-72
2021/06/19 05:34:57;;;;;;;1.35;1.25;;;21.70;80.00;;;;;;5092778;28;20036;-72
2021/06/19 05:37:22;;;;;;;1.50;1.40;;;21.70;80.00;;;;;;5092909;28;20031;-72
2021/06/19 05:39:48;;;;;;;1.75;1.08;;;21.70;79.90;;;;;;5092867;28;20051;-72
2021/06/19 05:42:13;;;;;;;1.45;1.35;;;21.70;80.00;;;;;;5092862;28;20095;-72
2021/06/19 05:44:39;;;;;;;1.17;1.13;;;21.70;80.00;;;;;;5092931;28;20024;-72
2021/06/19 05:47:06;;;;;;;1.23;1.13;;;21.70;79.90;;;;;;5092323;28;20032;-72
2021/06/19 05:49:31;;;;;;;1.05;0.93;;;21.70;79.80;;;;;;5096162;28;20032;-72
2021/06/19 05:51:57;;;;;;;1.42;1.20;;;21.70;79.80;;;;;;5096525;28;20020;-72
2021/06/19 05:54:22;;;;;;;1.77;1.67;;;21.70;79.80;;;;;;5096583;28;20035;-73
2021/06/19 05:56:48;;;;;;;1.25;1.17;;;21.70;79.80;;;;;;5096511;28;20073;-73
2021/06/19 05:59:13;;;;;;;1.38;1.27;;;21.70;79.80;;;;;;5096435;28;20024;-73
2021/06/19 06:01:39;;;;;;;2.55;2.10;;;21.70;79.90;;;;;;5095789;28;20016;-73
2021/06/19 06:04:04;;;;;;;1.67;1.58;;;21.70;79.90;;;;;;5096426;28;20016;-73
2021/06/19 06:06:30;;;;;;;2.90;2.40;;;21.80;79.90;;;;;;5096456;28;20028;-72
2021/06/19 06:08:55;;;;;;;3.03;2.40;;;21.80;79.60;;;;;;5096301;28;20461;-73
2021/06/19 06:11:21;;;;;;;2.47;2.10;;;21.80;79.60;;;;;;5096170;28;20039;-72
2021/06/19 06:13:47;;;;;;;3.38;3.00;;;21.70;79.60;;;;;;5095497;28;20063;-73
2021/06/19 06:16:13;;;;;;;2.28;1.85;;;21.70;79.80;;;;;;5095744;28;20058;-73
2021/06/19 06:18:38;;;;;;;2.88;2.55;;;21.70;79.70;;;;;;5096159;28;20142;-73
2021/06/19 06:21:05;;;;;;;2.83;2.50;;;21.70;79.60;;;;;;5096158;28;20468;-73
2021/06/19 06:23:31;;;;;;;2.72;2.40;;;21.70;79.60;;;;;;5077829;28;20074;-74
2021/06/19 06:25:57;;;;;;;3.83;3.38;;;21.70;79.70;;;;;;5095893;28;20024;-73
2021/06/19 06:28:23;;;;;;;2.90;2.40;;;21.70;79.60;;;;;;5095923;28;20577;-73
2021/06/19 06:30:49;;;;;;;5.03;3.08;;;21.70;79.50;;;;;;5095479;28;20032;-73
2021/06/19 06:33:15;;;;;;;4.25;3.30;;;21.70;79.30;;;;;;5095806;28;20028;-73
2021/06/19 06:35:40;;;;;;;5.47;3.92;;;21.70;79.40;;;;;;5095681;28;20050;-72
2021/06/19 06:38:06;;;;;;;4.60;3.42;;;21.60;79.40;;;;;;5095665;28;20024;-73
2021/06/19 06:40:32;;;;;;;9.05;4.45;;;21.50;79.30;;;;;;5095589;28;20051;-72
2021/06/19 06:42:57;;;;;;;5.13;3.83;;;21.50;79.30;;;;;;5095471;28;20032;-73
2021/06/19 06:45:23;;;;;;;5.18;3.63;;;21.50;80.00;;;;;;5095207;28;20047;-73
2021/06/19 06:47:50;;;;;;;4.65;3.00;;;21.60;79.20;;;;;;5095455;28;20024;-73
2021/06/19 06:50:16;;;;;;;4.65;3.22;;;21.70;78.90;;;;;;5095583;28;20322;-72
2021/06/19 06:52:41;;;;;;;4.45;2.92;;;21.70;78.70;;;;;;5095296;28;20039;-73
2021/06/19 06:55:08;;;;;;;4.07;2.80;;;21.80;78.70;;;;;;5095284;28;20028;-73
2021/06/19 06:57:35;;;;;;;5.38;3.97;;;21.80;78.60;;;;;;5095153;28;20520;-72
2021/06/19 07:00:00;;;;;;;4.13;2.88;;;22.00;78.30;;;;;;5093960;28;20453;-72
2021/06/19 07:02:28;;;;;;;3.80;2.50;;;22.10;78.00;;;;;;5095352;28;20031;-73
2021/06/19 07:04:54;;;;;;;3.78;2.92;;;22.10;77.90;;;;;;5095087;28;20020;-73
2021/06/19 07:07:19;;;;;;;3.85;2.80;;;22.10;77.80;;;;;;5108862;28;20072;-72
2021/06/19 07:09:45;;;;;;;4.43;3.20;;;22.10;77.80;;;;;;5114873;28;20024;-73
2021/06/19 07:12:11;;;;;;;4.22;2.63;;;22.10;77.80;;;;;;5115152;28;20038;-73
2021/06/19 07:14:36;;;;;;;3.22;2.40;;;22.20;77.70;;;;;;5114548;28;20055;-73
2021/06/19 07:17:07;;;;;;;3.92;2.30;;;22.20;77.40;;;;;;5115379;28;20020;-73
2021/06/19 07:19:32;;;;;;;3.25;2.22;;;22.30;77.50;;;;;;5115390;28;20069;-73
2021/06/19 07:21:58;;;;;;;2.65;2.20;;;22.30;77.30;;;;;;5115202;28;20023;-73
2021/06/19 07:24:24;;;;;;;3.47;2.20;;;22.40;77.10;;;;;;5115277;28;20483;-73
2021/06/19 07:26:50;;;;;;;3.90;2.58;;;22.40;77.10;;;;;;5115057;28;20012;-73
2021/06/19 07:29:15;;;;;;;2.95;2.40;;;22.30;76.90;;;;;;5114686;28;20026;-72
2021/06/19 07:31:41;;;;;;;2.65;2.05;;;22.30;77.20;;;;;;5114849;28;20031;-73
2021/06/19 07:34:06;;;;;;;3.25;2.22;;;22.20;77.20;;;;;;5114663;28;20047;-75
2021/06/19 07:36:32;;;;;;;3.70;3.22;;;22.20;77.30;;;;;;5114768;28;20047;-75
2021/06/19 07:38:58;;;;;;;2.20;1.80;;;22.10;77.30;;;;;;5114963;28;20439;-75
2021/06/19 07:41:23;;;;;;;3.05;2.50;;;22.00;77.50;;;;;;5114768;28;20532;-75
2021/06/19 07:43:49;;;;;;;3.63;2.40;;;22.10;77.50;;;;;;5114093;28;20024;-75
2021/06/19 07:46:14;;;;;;;3.33;2.42;;;22.10;77.10;;;;;;5114845;28;20471;-75
2021/06/19 07:48:40;;;;;;;2.03;1.70;;;22.10;77.10;;;;;;5114715;28;20072;-75
2021/06/19 07:51:05;;;;;;;2.90;2.08;;;22.10;77.20;;;;;;5114612;28;20027;-75
2021/06/19 07:53:31;;;;;;;2.08;1.70;;;22.00;77.10;;;;;;5096280;28;20120;-76
2021/06/19 07:55:56;;;;;;;3.00;2.00;;;22.00;77.20;;;;;;5114362;28;20482;-75
2021/06/19 07:58:22;;;;;;;3.75;2.38;;;21.90;77.20;;;;;;5113981;28;20651;-74
2021/06/19 08:00:47;;;;;;;3.60;2.22;;;21.90;77.20;;;;;;5114509;28;20020;-73
2021/06/19 08:03:13;;;;;;;2.92;2.10;;;22.00;77.20;;;;;;5114577;28;20484;-74
2021/06/19 08:05:39;;;;;;;4.63;3.58;;;22.20;76.90;;;;;;5114354;28;20012;-74
2021/06/19 08:08:05;;;;;;;3.95;2.55;;;22.40;76.30;;;;;;5114262;28;20019;-74
2021/06/19 08:10:30;;;;;;;4.28;2.40;;;22.40;76.20;;;;;;5114203;28;20019;-75
2021/06/19 08:12:56;;;;;;;2.95;2.20;;;22.30;76.30;;;;;;5113735;28;20164;-75
2021/06/19 08:15:22;;;;;;;4.18;2.67;;;22.30;76.50;;;;;;5114364;28;20028;-75
2021/06/19 08:17:48;;;;;;;4.07;2.92;;;22.30;76.50;;;;;;5095799;28;20422;-75
2021/06/19 08:20:14;;;;;;;3.22;2.40;;;22.40;76.40;;;;;;5114281;28;20076;-75
2021/06/19 08:22:40;;;;;;;4.20;2.80;;;22.30;76.30;;;;;;5095858;28;20115;-75
2021/06/19 08:25:07;;;;;;;3.53;2.40;;;22.30;76.30;;;;;;5114006;28;20019;-75
2021/06/19 08:27:32;;;;;;;3.05;1.98;;;22.40;76.50;;;;;;5095313;28;20120;-75
2021/06/19 08:29:58;;;;;;;3.58;2.35;;;22.40;76.30;;;;;;5113988;28;20020;-74
2021/06/19 08:32:23;;;;;;;2.72;2.08;;;22.70;76.00;;;;;;5113822;28;20020;-75
2021/06/19 08:34:49;;;;;;;3.55;2.47;;;22.90;75.50;;;;;;5113693;28;20105;-75
2021/06/19 08:37:15;;;;;;;3.70;2.50;;;22.90;75.30;;;;;;5113896;28;20024;-74
2021/06/19 08:39:41;;;;;;;3.97;2.72;;;22.80;75.30;;;;;;5113857;28;20024;-74
2021/06/19 08:42:07;;;;;;;3.45;2.67;;;22.80;75.50;;;;;;5113368;28;20505;-74
2021/06/19 08:44:33;;;;;;;5.97;3.42;;;22.80;75.50;;;;;;5095541;28;20023;-74
2021/06/19 08:46:59;;;;;;;4.38;2.95;;;22.80;75.40;;;;;;5113808;28;20046;-74
2021/06/19 08:49:27;;;;;;;5.05;3.67;;;22.70;75.50;;;;;;5095358;28;20011;-74
2021/06/19 08:51:54;;;;;;;5.07;4.05;;;22.70;75.40;;;;;;5113786;28;20475;-75
2021/06/19 08:54:21;;;;;;;4.50;3.40;;;22.70;75.30;;;;;;5113048;28;20034;-74
2021/06/19 08:56:47;;;;;;;3.92;2.80;;;22.70;75.30;;;;;;5113651;28;20452;-74
2021/06/19 08:59:13;;;;;;;4.20;3.17;;;22.70;75.60;;;;;;5113553;28;20019;-75
2021/06/19 09:01:40;;;;;;;5.35;3.60;;;22.80;75.20;;;;;;5113407;28;20047;-75
2021/06/19 09:04:08;;;;;;;3.75;2.78;;;22.70;75.00;;;;;;5113451;28;20030;-74
2021/06/19 09:06:44;;;;;;;4.63;2.92;;;22.70;75.10;;;;;;5113608;28;20149;-74
2021/06/19 09:09:15;;;;;;;3.67;2.92;;;22.70;75.20;;;;;;5112985;28;20035;-74
2021/06/19 09:11:54;;;;;;;2.83;2.13;;;22.70;75.20;;;;;;5095374;28;20380;-74
2021/06/19 09:14:23;;;;;;;2.72;2.20;;;22.80;74.90;;;;;;5113405;28;20472;-75
2021/06/19 09:17:19;;;;;;;3.60;2.88;;;22.80;74.70;;;;;;5095098;28;20024;-75
2021/06/19 09:19:45;;;;;;;3.63;2.55;;;22.80;74.80;;;;;;5113508;28;20020;-75
2021/06/19 09:22:20;;;;;;;3.53;2.53;;;22.70;74.90;;;;;;5095016;28;20011;-75
2021/06/19 09:24:47;;;;;;;3.95;3.05;;;22.60;74.90;;;;;;5098800;28;20016;-74
2021/06/19 09:27:45;;;;;;;4.63;3.60;;;22.50;75.10;;;;;;5117501;28;20022;-74
2021/06/19 09:30:21;;;;;;;4.53;3.92;;;22.50;74.90;;;;;;5117473;28;20046;-74
2021/06/19 09:32:47;;;;;;;4.53;3.72;;;22.60;74.90;;;;;;5117310;28;20024;-74
2021/06/19 09:35:19;;;;;;;3.30;2.58;;;22.80;74.40;;;;;;5117193;28;20043;-74
2021/06/19 09:37:50;;;;;;;3.42;2.60;;;22.90;74.20;;;;;;5117395;28;20023;-75
2021/06/19 09:40:29;;;;;;;3.95;2.33;;;23.10;74.10;;;;;;5117220;28;20030;-74
2021/06/19 09:43:06;;;;;;;4.50;2.38;;;23.20;74.00;;;;;;5117395;28;20015;-75
2021/06/19 09:45:31;;;;;;;2.88;2.38;;;23.30;73.80;;;;;;5117049;28;20020;-74
2021/06/19 09:47:57;;;;;;;2.80;2.10;;;23.30;74.00;;;;;;5117260;28;20559;-73
2021/06/19 09:50:22;;;;;;;2.47;2.10;;;23.40;73.80;;;;;;5116999;28;20026;-74
2021/06/19 09:52:48;;;;;;;2.88;2.30;;;23.40;73.80;;;;;;5116380;28;20044;-74
2021/06/19 09:55:15;;;;;;;2.72;1.90;;;23.60;73.80;;;;;;5116929;28;20102;-75
2021/06/19 09:57:45;;;;;;;3.85;2.92;;;23.70;73.60;;;;;;5117062;28;20039;-75
2021/06/19 10:00:20;;;;;;;3.42;2.90;;;23.60;73.60;;;;;;5116976;28;20135;-74
2021/06/19 10:02:46;;;;;;;4.43;3.83;;;23.60;74.20;;;;;;5116863;28;20020;-73
2021/06/19 10:05:12;;;;;;;4.57;2.85;;;23.40;73.70;;;;;;5098262;28;20020;-73
2021/06/19 10:07:39;;;;;;;4.20;3.35;;;23.30;74.10;;;;;;5116282;28;20034;-73
2021/06/19 10:10:12;;;;;;;3.95;3.15;;;23.30;74.00;;;;;;5116734;28;20094;-74
2021/06/19 10:12:39;;;;;;;5.47;3.63;;;23.40;73.70;;;;;;5116539;28;20046;-74
2021/06/19 10:15:07;;;;;;;4.28;3.05;;;23.40;73.60;;;;;;5116442;28;20027;-73
2021/06/19 10:17:37;;;;;;;3.13;2.83;;;23.30;73.90;;;;;;5116502;28;20035;-74
2021/06/19 10:20:06;;;;;;;3.63;3.08;;;23.30;73.90;;;;;;5116536;28;20023;-73
2021/06/19 10:22:33;;;;;;;4.17;3.40;;;23.30;74.00;;;;;;5115934;28;20015;-73
2021/06/19 10:25:02;;;;;;;3.42;2.78;;;23.30;74.10;;;;;;5116511;28;20098;-73
2021/06/19 10:27:29;;;;;;;3.30;2.70;;;23.30;74.30;;;;;;5116404;28;20019;-73
2021/06/19 10:29:56;;;;;;;4.35;2.97;;;23.50;74.00;;;;;;5116432;28;20016;-74
2021/06/19 10:32:39;;;;;;;2.97;2.67;;;23.80;73.50;;;;;;5115980;28;20031;-73
2021/06/19 10:35:06;;;;;;;3.67;2.90;;;24.00;73.10;;;;;;5114644;28;20072;-74
2021/06/19 10:37:32;;;;;;;3.10;2.25;;;24.20;72.50;;;;;;5115757;28;20106;-74
2021/06/19 10:40:12;;;;;;;2.58;2.35;;;24.30;72.50;;;;;;5116003;28;20114;-73
2021/06/19 10:42:37;;;;;;;2.55;2.35;;;24.30;72.40;;;;;;5115993;28;20031;-74
2021/06/19 10:45:14;;;;;;;3.83;2.83;;;24.30;72.30;;;;;;5097654;28;20015;-73
2021/06/19 10:48:09;;;;;;;2.60;2.33;;;24.30;72.10;;;;;;5097749;28;20024;-73
2021/06/19 10:50:37;;;;;;;3.00;2.55;;;24.50;72.40;;;;;;5115329;28;20019;-73
2021/06/19 10:53:22;;;;;;;3.75;3.30;;;24.60;72.10;;;;;;5115694;28;20533;-74
2021/06/19 10:55:53;;;;;;;3.63;3.00;;;24.80;71.40;;;;;;5115885;28;20103;-74
2021/06/19 10:58:21;;;;;;;2.95;2.40;;;24.70;71.70;;;;;;5097472;28;20028;-74
2021/06/19 11:00:52;;;;;;;3.13;2.70;;;24.60;71.90;;;;;;5115703;28;20012;-74
2021/06/19 11:03:44;;;;;;;4.10;3.17;;;24.60;71.80;;;;;;5115800;28;20020;-73
2021/06/19 11:06:36;;;;;;;2.55;2.22;;;24.60;71.90;;;;;;5115120;28;20065;-74
2021/06/19 11:09:15;;;;;;;4.28;3.15;;;24.70;71.80;;;;;;5111061;28;20042;-73
2021/06/19 11:11:50;;;;;;;3.88;2.83;;;24.90;71.20;;;;;;5097032;28;20062;-75
2021/06/19 11:14:40;;;;;;;3.03;2.42;;;24.80;71.30;;;;;;5097047;28;20042;-75
2021/06/19 11:17:30;;;;;;;3.17;2.75;;;24.60;71.60;;;;;;5115250;28;20024;-74
2021/06/19 11:19:59;;;;;;;3.15;2.53;;;24.60;71.60;;;;;;5114588;28;20102;-74
2021/06/19 11:22:58;;;;;;;4.32;3.22;;;24.80;71.10;;;;;;5115137;28;20019;-74
2021/06/19 11:28:05;;;;;;;3.08;2.67;;;25.00;70.60;;;;;;5115216;28;20088;-74
2021/06/19 11:30:34;;;;;;;3.33;2.45;;;25.30;70.00;;;;;;5115056;28;20084;-74
2021/06/19 11:33:25;;;;;;;3.17;2.50;;;25.30;69.90;;;;;;5114988;28;20460;-74
2021/06/19 11:35:52;;;;;;;3.28;2.65;;;25.10;70.30;;;;;;5096027;28;20050;-75
2021/06/19 11:38:19;;;;;;;3.47;2.88;;;24.80;70.80;;;;;;5096618;28;20471;-74
2021/06/19 11:40:47;;;;;;;5.25;4.55;;;24.60;71.10;;;;;;5096678;28;20115;-74
2021/06/19 11:43:14;;;;;;;4.40;3.40;;;24.30;71.10;;;;;;5114769;28;20020;-75
2021/06/19 11:45:41;;;;;;;3.83;3.35;;;24.10;71.90;;;;;;5114451;28;20012;-76
2021/06/19 11:48:18;;;;;;;4.70;3.85;;;24.10;71.80;;;;;;5114664;28;20102;-76
2021/06/19 11:50:45;;;;;;;4.03;3.33;;;24.20;71.60;;;;;;5114734;28;20059;-75
2021/06/19 11:53:24;;;;;;;5.53;3.30;;;24.30;71.20;;;;;;5114635;28;20122;-76
2021/06/19 11:56:06;;;;;;;3.42;2.55;;;24.20;71.20;;;;;;5114532;28;20461;-74
2021/06/19 11:59:09;;;;;;;4.13;3.35;;;24.20;71.40;;;;;;5114589;28;20085;-75
2021/06/19 12:01:40;;;;;;;3.17;2.47;;;24.10;71.30;;;;;;5109493;28;20028;-74
2021/06/19 12:04:17;;;;;;;3.95;3.22;;;24.00;71.50;;;;;;5113962;28;20020;-74
2021/06/19 12:06:45;;;;;;;3.25;2.47;;;24.00;71.60;;;;;;5114353;28;20371;-74
2021/06/19 12:09:25;;;;;;;3.42;2.90;;;23.90;71.50;;;;;;5114427;28;20027;-73
2021/06/19 12:12:06;;;;;;;4.15;3.13;;;24.00;71.40;;;;;;5114265;28;20392;-73
2021/06/19 12:14:34;;;;;;;2.90;2.58;;;23.90;71.60;;;;;;5114185;28;20066;-73
2021/06/19 12:17:05;;;;;;;4.05;2.90;;;23.80;71.60;;;;;;5114188;28;20031;-73
2021/06/19 12:19:37;;;;;;;3.42;2.63;;;23.90;71.50;;;;;;5113768;28;20068;-73
2021/06/19 12:22:17;;;;;;;3.38;2.60;;;24.10;71.40;;;;;;5113988;28;20016;-73
2021/06/19 12:24:43;;;;;;;3.38;2.50;;;24.30;70.90;;;;;;5114129;28;20024;-73
2021/06/19 12:27:10;;;;;;;4.15;3.20;;;24.50;70.50;;;;;;5114021;28;20024;-73
2021/06/19 12:29:57;;;;;;;3.28;2.97;;;24.50;70.10;;;;;;5095940;28;20054;-74
2021/06/19 12:32:39;;;;;;;4.85;3.67;;;24.20;70.50;;;;;;5113492;28;20039;-73
2021/06/19 12:35:07;;;;;;;4.00;3.20;;;24.00;70.80;;;;;;5113537;28;20047;-73
2021/06/19 12:37:36;;;;;;;3.95;3.30;;;23.90;71.30;;;;;;5113693;28;20038;-73
2021/06/19 12:40:06;;;;;;;4.32;3.60;;;23.90;71.30;;;;;;5113780;28;20034;-73
2021/06/19 12:42:59;;;;;;;3.85;2.60;;;23.80;71.10;;;;;;5113284;28;20039;-73
2021/06/19 12:45:32;;;;;;;3.75;2.75;;;23.70;71.50;;;;;;5095634;28;20020;-73
2021/06/19 12:47:58;;;;;;;2.75;2.22;;;23.80;71.30;;;;;;5113321;28;20119;-73
2021/06/19 12:50:29;;;;;;;3.10;2.40;;;23.80;71.10;;;;;;5113675;28;20051;-74
2021/06/19 12:52:56;;;;;;;4.32;3.63;;;24.10;70.80;;;;;;5095381;28;20035;-74
2021/06/19 12:55:22;;;;;;;4.32;3.47;;;24.30;70.20;;;;;;5113648;28;20024;-74
2021/06/19 12:58:02;;;;;;;4.00;3.20;;;24.40;70.00;;;;;;5112847;28;20027;-74
2021/06/19 13:00:39;;;;;;;3.95;3.17;;;24.90;69.60;;;;;;5113540;28;20281;-73